RYR63E LEPA-EDLV
Flight info
| Callsign | RYR63E |
|---|---|
| Flight time | 2h 1m |
| Altitude | 40000 |
| Route | MEROS DCT LAPIT DCT CHELY N853 LUMAS DCT SOSUR DCT SECON DCT ODIXU DCT MAXIR DCT LUSOL DCT BODRU DCT OKTET DCT IRMAR DCT KINES DCT VANAS DCT MOBLO DCT UBIMA DCT GILIR DCT PENDU DCT IXILU DCT GIVOR DCT SORAL DCT IBERA N853 DIK/N0460F310 N853 ARCKY T853 IBESA T474 LAA |
| Aircraft | B736/M-SDE2E3FGHIRWXY/LB1 |
Departure
| Time | 2026-04-30 19:52 |
|---|---|
| Airport | Palma de Mallorca Airport (LEPA) |
Arrival
| Time | 2026-04-30 21:53 |
|---|---|
| Airport | Weeze (Niederrhein) Airport (EDLV) |
| Time | Latitude | Longitude | Altitude | Speed | Heading |
|---|---|---|---|---|---|
| 2026-04-30 19:26 | 39.54722 | 2.73681 | 34 ft | 0 kts | 60° |
| 2026-04-30 19:38 | 39.54713 | 2.73661 | 34 ft | 4 kts | 62° |
| 2026-04-30 19:38 | 39.54701 | 2.73630 | 33 ft | 4 kts | 70° |
| 2026-04-30 19:39 | 39.54696 | 2.73598 | 34 ft | 4 kts | 106° |
| 2026-04-30 19:39 | 39.54704 | 2.73582 | 34 ft | 1 kts | 149° |
| 2026-04-30 19:39 | 39.54706 | 2.73580 | 34 ft | 0 kts | 149° |
| 2026-04-30 19:45 | 39.54689 | 2.73593 | 31 ft | 10 kts | 148° |
| 2026-04-30 19:45 | 39.54606 | 2.73633 | 34 ft | 16 kts | 160° |
| 2026-04-30 19:45 | 39.54514 | 2.73546 | 35 ft | 21 kts | 239° |
| 2026-04-30 19:45 | 39.54431 | 2.73367 | 36 ft | 25 kts | 239° |
| 2026-04-30 19:46 | 39.54346 | 2.73184 | 37 ft | 15 kts | 239° |
| 2026-04-30 19:46 | 39.54340 | 2.73170 | 36 ft | 1 kts | 239° |
| 2026-04-30 19:46 | 39.54333 | 2.73157 | 37 ft | 0 kts | 235° |
| 2026-04-30 19:47 | 39.54328 | 2.73150 | 38 ft | 3 kts | 229° |
| 2026-04-30 19:47 | 39.54315 | 2.73128 | 38 ft | 6 kts | 234° |
| 2026-04-30 19:47 | 39.54292 | 2.73084 | 38 ft | 3 kts | 234° |
| 2026-04-30 19:47 | 39.54275 | 2.73065 | 38 ft | 6 kts | 210° |
| 2026-04-30 19:48 | 39.54253 | 2.73060 | 38 ft | 4 kts | 174° |
| 2026-04-30 19:48 | 39.54234 | 2.73073 | 38 ft | 3 kts | 142° |
| 2026-04-30 19:48 | 39.54220 | 2.73115 | 38 ft | 8 kts | 102° |
| 2026-04-30 19:48 | 39.54215 | 2.73205 | 38 ft | 13 kts | 92° |
| 2026-04-30 19:49 | 39.54210 | 2.73326 | 37 ft | 11 kts | 91° |
| 2026-04-30 19:49 | 39.54231 | 2.73401 | 36 ft | 0 kts | 59° |
| 2026-04-30 19:49 | 39.54231 | 2.73402 | 36 ft | 0 kts | 59° |
| 2026-04-30 19:50 | 39.54245 | 2.73431 | 35 ft | 7 kts | 56° |
| 2026-04-30 19:51 | 39.54247 | 2.73434 | 36 ft | 0 kts | 56° |
| 2026-04-30 19:51 | 39.54250 | 2.73440 | 36 ft | 0 kts | 56° |
| 2026-04-30 19:52 | 39.54256 | 2.73452 | 36 ft | 0 kts | 54° |
| 2026-04-30 19:52 | 39.54328 | 2.73596 | 32 ft | 67 kts | 57° |
| 2026-04-30 19:52 | 39.54748 | 2.74504 | 93 ft | 162 kts | 59° |
| 2026-04-30 19:52 | 39.55340 | 2.75829 | 1256 ft | 171 kts | 60° |
| 2026-04-30 19:53 | 39.55962 | 2.77203 | 2558 ft | 187 kts | 59° |
| 2026-04-30 19:53 | 39.56700 | 2.78783 | 3319 ft | 225 kts | 58° |
| 2026-04-30 19:53 | 39.57542 | 2.80589 | 4409 ft | 237 kts | 57° |
| 2026-04-30 19:53 | 39.58418 | 2.82475 | 5576 ft | 251 kts | 58° |
| 2026-04-30 19:54 | 39.59327 | 2.84439 | 6821 ft | 257 kts | 58° |
| 2026-04-30 19:54 | 39.60261 | 2.86466 | 7957 ft | 265 kts | 58° |
| 2026-04-30 19:54 | 39.61220 | 2.88550 | 9068 ft | 273 kts | 58° |
| 2026-04-30 19:54 | 39.62203 | 2.90691 | 10146 ft | 281 kts | 58° |
| 2026-04-30 19:55 | 39.63194 | 2.92905 | 11153 ft | 286 kts | 59° |
| 2026-04-30 19:55 | 39.64197 | 2.95167 | 12176 ft | 291 kts | 59° |
| 2026-04-30 19:55 | 39.65211 | 2.97456 | 13091 ft | 293 kts | 59° |
| 2026-04-30 19:55 | 39.66244 | 2.99778 | 13751 ft | 300 kts | 59° |
| 2026-04-30 19:56 | 39.67299 | 3.02137 | 14363 ft | 305 kts | 59° |
| 2026-04-30 19:56 | 39.68355 | 3.04493 | 14921 ft | 307 kts | 59° |
| 2026-04-30 19:56 | 39.69430 | 3.06893 | 15061 ft | 306 kts | 58° |
| 2026-04-30 19:56 | 39.70502 | 3.09288 | 15092 ft | 308 kts | 59° |
| 2026-04-30 19:57 | 39.71569 | 3.11707 | 15100 ft | 308 kts | 59° |
| 2026-04-30 19:57 | 39.72615 | 3.14145 | 15098 ft | 308 kts | 60° |
| 2026-04-30 19:57 | 39.73639 | 3.16589 | 15097 ft | 308 kts | 60° |
| 2026-04-30 19:57 | 39.74653 | 3.19048 | 15095 ft | 308 kts | 61° |
| 2026-04-30 19:58 | 39.75649 | 3.21509 | 15128 ft | 308 kts | 61° |
| 2026-04-30 19:58 | 39.76643 | 3.24003 | 15591 ft | 314 kts | 62° |
| 2026-04-30 19:58 | 39.77724 | 3.26553 | 15812 ft | 340 kts | 53° |
| 2026-04-30 19:58 | 39.79265 | 3.29014 | 16030 ft | 363 kts | 47° |
| 2026-04-30 19:59 | 39.80994 | 3.31580 | 16104 ft | 391 kts | 47° |
| 2026-04-30 19:59 | 39.82822 | 3.34272 | 16102 ft | 399 kts | 47° |
| 2026-04-30 19:59 | 39.86499 | 3.39725 | 16090 ft | 400 kts | 47° |
| 2026-04-30 20:00 | 39.88332 | 3.42465 | 16090 ft | 400 kts | 47° |
| 2026-04-30 20:00 | 39.90154 | 3.45200 | 16094 ft | 399 kts | 47° |
| 2026-04-30 20:00 | 39.91971 | 3.47935 | 16097 ft | 399 kts | 47° |
| 2026-04-30 20:00 | 39.93790 | 3.50678 | 16099 ft | 400 kts | 47° |
| 2026-04-30 20:01 | 39.97435 | 3.56183 | 16161 ft | 405 kts | 47° |
| 2026-04-30 20:01 | 39.99289 | 3.58986 | 16841 ft | 410 kts | 47° |
| 2026-04-30 20:01 | 40.01146 | 3.61798 | 17733 ft | 410 kts | 47° |
| 2026-04-30 20:02 | 40.04905 | 3.67495 | 19170 ft | 419 kts | 47° |
| 2026-04-30 20:02 | 40.06816 | 3.70395 | 19835 ft | 423 kts | 47° |
| 2026-04-30 20:03 | 40.10028 | 3.75278 | 20935 ft | 429 kts | 47° |
| 2026-04-30 20:03 | 40.12621 | 3.79224 | 21782 ft | 435 kts | 47° |
| 2026-04-30 20:03 | 40.14601 | 3.82242 | 22400 ft | 439 kts | 47° |
| 2026-04-30 20:03 | 40.16594 | 3.85282 | 23000 ft | 444 kts | 47° |
| 2026-04-30 20:04 | 40.17963 | 3.87371 | 23416 ft | 446 kts | 47° |
| 2026-04-30 20:04 | 40.19964 | 3.90429 | 23961 ft | 451 kts | 47° |
| 2026-04-30 20:04 | 40.22034 | 3.93594 | 24454 ft | 455 kts | 47° |
| 2026-04-30 20:05 | 40.26157 | 3.99911 | 25459 ft | 462 kts | 47° |
| 2026-04-30 20:05 | 40.28251 | 4.03124 | 25954 ft | 466 kts | 47° |
| 2026-04-30 20:05 | 40.32488 | 4.09635 | 26885 ft | 473 kts | 47° |
| 2026-04-30 20:06 | 40.34631 | 4.12933 | 27336 ft | 477 kts | 47° |
| 2026-04-30 20:06 | 40.36789 | 4.16258 | 27771 ft | 481 kts | 47° |
| 2026-04-30 20:06 | 40.38963 | 4.19612 | 28209 ft | 484 kts | 47° |
| 2026-04-30 20:06 | 40.41152 | 4.22994 | 28630 ft | 488 kts | 47° |
| 2026-04-30 20:07 | 40.43361 | 4.26409 | 29019 ft | 492 kts | 47° |
| 2026-04-30 20:07 | 40.45584 | 4.29848 | 29422 ft | 495 kts | 47° |
| 2026-04-30 20:07 | 40.50548 | 4.36042 | 30145 ft | 491 kts | 25° |
| 2026-04-30 20:08 | 40.53671 | 4.37734 | 30516 ft | 483 kts | 10° |
| 2026-04-30 20:08 | 40.56944 | 4.38585 | 31033 ft | 477 kts | 5° |
| 2026-04-30 20:08 | 40.60167 | 4.39285 | 31541 ft | 475 kts | 4° |
| 2026-04-30 20:08 | 40.63430 | 4.39979 | 31989 ft | 474 kts | 5° |
| 2026-04-30 20:09 | 40.66694 | 4.40693 | 32413 ft | 475 kts | 5° |
| 2026-04-30 20:09 | 40.69948 | 4.41435 | 32850 ft | 474 kts | 5° |
| 2026-04-30 20:09 | 40.76429 | 4.42970 | 33723 ft | 472 kts | 6° |
| 2026-04-30 20:10 | 40.82892 | 4.44519 | 34480 ft | 471 kts | 6° |
| 2026-04-30 20:10 | 40.86105 | 4.45289 | 34909 ft | 468 kts | 6° |
| 2026-04-30 20:10 | 40.89310 | 4.46056 | 35316 ft | 466 kts | 5° |
| 2026-04-30 20:11 | 40.95643 | 4.47593 | 35938 ft | 466 kts | 6° |
| 2026-04-30 20:11 | 40.98825 | 4.48373 | 36253 ft | 465 kts | 6° |
| 2026-04-30 20:11 | 41.02001 | 4.49152 | 36600 ft | 463 kts | 6° |
| 2026-04-30 20:12 | 41.08322 | 4.50702 | 37319 ft | 460 kts | 5° |
| 2026-04-30 20:12 | 41.11462 | 4.51469 | 37631 ft | 459 kts | 5° |
| 2026-04-30 20:12 | 41.14610 | 4.52237 | 37894 ft | 459 kts | 5° |
| 2026-04-30 20:13 | 41.17753 | 4.53003 | 38159 ft | 459 kts | 5° |
| 2026-04-30 20:13 | 41.20890 | 4.53769 | 38459 ft | 457 kts | 5° |
| 2026-04-30 20:13 | 41.24013 | 4.54534 | 38754 ft | 456 kts | 5° |
| 2026-04-30 20:13 | 41.27134 | 4.55298 | 38985 ft | 456 kts | 5° |
| 2026-04-30 20:14 | 41.30256 | 4.56064 | 39125 ft | 457 kts | 5° |
| 2026-04-30 20:14 | 41.36543 | 4.57607 | 39128 ft | 457 kts | 5° |
| 2026-04-30 20:15 | 41.42755 | 4.59140 | 39122 ft | 451 kts | 5° |
| 2026-04-30 20:15 | 41.48869 | 4.60648 | 39138 ft | 447 kts | 5° |
| 2026-04-30 20:16 | 41.54975 | 4.62156 | 39130 ft | 445 kts | 5° |
| 2026-04-30 20:16 | 41.61065 | 4.63662 | 39140 ft | 445 kts | 5° |
| 2026-04-30 20:17 | 41.67165 | 4.65174 | 39139 ft | 446 kts | 5° |
| 2026-04-30 20:17 | 41.73290 | 4.66710 | 39142 ft | 450 kts | 6° |
| 2026-04-30 20:18 | 41.79385 | 4.68926 | 39156 ft | 456 kts | 11° |
| 2026-04-30 20:18 | 41.85476 | 4.71421 | 39144 ft | 459 kts | 11° |
| 2026-04-30 20:19 | 41.91600 | 4.73909 | 39157 ft | 460 kts | 11° |
| 2026-04-30 20:19 | 41.97746 | 4.76363 | 39144 ft | 461 kts | 11° |
| 2026-04-30 20:20 | 42.03856 | 4.78789 | 39156 ft | 461 kts | 11° |
| 2026-04-30 20:20 | 42.10004 | 4.81234 | 39175 ft | 460 kts | 11° |
| 2026-04-30 20:21 | 42.16149 | 4.83683 | 39162 ft | 460 kts | 11° |
| 2026-04-30 20:21 | 42.22290 | 4.86138 | 39156 ft | 459 kts | 11° |
| 2026-04-30 20:22 | 42.28427 | 4.88595 | 39159 ft | 459 kts | 11° |
| 2026-04-30 20:22 | 42.34537 | 4.91047 | 39174 ft | 458 kts | 11° |
| 2026-04-30 20:23 | 42.40618 | 4.93492 | 39161 ft | 458 kts | 11° |
| 2026-04-30 20:23 | 42.46719 | 4.95950 | 39178 ft | 457 kts | 10° |
| 2026-04-30 20:24 | 42.52815 | 4.98411 | 39188 ft | 456 kts | 11° |
| 2026-04-30 20:24 | 42.58907 | 5.00863 | 39174 ft | 455 kts | 10° |
| 2026-04-30 20:25 | 42.68019 | 5.04470 | 39177 ft | 454 kts | 10° |
| 2026-04-30 20:26 | 42.77080 | 5.08075 | 39179 ft | 453 kts | 10° |
| 2026-04-30 20:26 | 42.82884 | 5.11618 | 39184 ft | 468 kts | 30° |
| 2026-04-30 20:26 | 42.85370 | 5.14529 | 39176 ft | 476 kts | 43° |
| 2026-04-30 20:27 | 42.93486 | 5.28971 | 39184 ft | 482 kts | 49° |
| 2026-04-30 20:28 | 43.01645 | 5.43510 | 39182 ft | 482 kts | 47° |
| 2026-04-30 20:30 | 43.11965 | 5.61574 | 39184 ft | 480 kts | 44° |
| 2026-04-30 20:31 | 43.25304 | 5.81900 | 39190 ft | 479 kts | 44° |
| 2026-04-30 20:32 | 43.36313 | 5.98967 | 39201 ft | 474 kts | 42° |
| 2026-04-30 20:33 | 43.38794 | 6.01874 | 39188 ft | 463 kts | 26° |
| 2026-04-30 20:33 | 43.44639 | 6.04782 | 39184 ft | 442 kts | 0° |
| 2026-04-30 20:34 | 43.53800 | 6.05539 | 39198 ft | 440 kts | 359° |
| 2026-04-30 20:35 | 43.63000 | 6.06401 | 39209 ft | 443 kts | 359° |
| 2026-04-30 20:35 | 43.72245 | 6.07318 | 39211 ft | 444 kts | 360° |
| 2026-04-30 20:36 | 43.78335 | 6.08755 | 39225 ft | 452 kts | 14° |
| 2026-04-30 20:37 | 43.86962 | 6.14373 | 39225 ft | 458 kts | 23° |
| 2026-04-30 20:37 | 43.92645 | 6.18363 | 39219 ft | 457 kts | 23° |
| 2026-04-30 20:38 | 43.98339 | 6.22289 | 39219 ft | 456 kts | 22° |
| 2026-04-30 20:38 | 44.04026 | 6.26185 | 39214 ft | 455 kts | 22° |
| 2026-04-30 20:39 | 44.12513 | 6.32014 | 39217 ft | 453 kts | 23° |
| 2026-04-30 20:40 | 44.20979 | 6.37854 | 39217 ft | 452 kts | 23° |
| 2026-04-30 20:40 | 44.26602 | 6.41746 | 39240 ft | 450 kts | 23° |
| 2026-04-30 20:41 | 44.34987 | 6.47571 | 39233 ft | 450 kts | 23° |
| 2026-04-30 20:41 | 44.40598 | 6.51479 | 39228 ft | 450 kts | 23° |
| 2026-04-30 20:42 | 44.46211 | 6.55397 | 39242 ft | 450 kts | 24° |
| 2026-04-30 20:43 | 44.54629 | 6.61262 | 39256 ft | 451 kts | 24° |
| 2026-04-30 20:43 | 44.60254 | 6.65175 | 39265 ft | 451 kts | 24° |
| 2026-04-30 20:44 | 44.68672 | 6.71055 | 39275 ft | 453 kts | 24° |
| 2026-04-30 20:45 | 44.80165 | 6.78169 | 39289 ft | 448 kts | 9° |
| 2026-04-30 20:45 | 44.86335 | 6.78769 | 39288 ft | 443 kts | 355° |
| 2026-04-30 20:46 | 44.98654 | 6.77800 | 39278 ft | 442 kts | 355° |
| 2026-04-30 20:47 | 45.07853 | 6.77170 | 39273 ft | 440 kts | 355° |
| 2026-04-30 20:48 | 45.16006 | 6.76635 | 39268 ft | 440 kts | 355° |
| 2026-04-30 20:48 | 45.23129 | 6.76163 | 39274 ft | 441 kts | 356° |
| 2026-04-30 20:49 | 45.28242 | 6.75824 | 39267 ft | 442 kts | 356° |
| 2026-04-30 20:50 | 45.37491 | 6.75218 | 39263 ft | 443 kts | 356° |
| 2026-04-30 20:50 | 45.43675 | 6.74829 | 39260 ft | 444 kts | 356° |
| 2026-04-30 20:51 | 45.49853 | 6.74425 | 39253 ft | 444 kts | 356° |
| 2026-04-30 20:51 | 45.59117 | 6.73793 | 39256 ft | 444 kts | 356° |
| 2026-04-30 20:52 | 45.65242 | 6.73376 | 39246 ft | 443 kts | 356° |
| 2026-04-30 20:53 | 45.74488 | 6.72745 | 39244 ft | 442 kts | 356° |
| 2026-04-30 20:53 | 45.80637 | 6.72325 | 39241 ft | 442 kts | 357° |
| 2026-04-30 20:54 | 45.89857 | 6.71687 | 39237 ft | 441 kts | 356° |
| 2026-04-30 20:55 | 45.99026 | 6.71048 | 39227 ft | 441 kts | 356° |
| 2026-04-30 20:55 | 46.05155 | 6.70621 | 39230 ft | 442 kts | 356° |
| 2026-04-30 20:56 | 46.14332 | 6.69381 | 39215 ft | 442 kts | 344° |
| 2026-04-30 20:57 | 46.23066 | 6.65138 | 39223 ft | 443 kts | 341° |
| 2026-04-30 20:57 | 46.28900 | 6.62213 | 39221 ft | 443 kts | 341° |
| 2026-04-30 20:58 | 46.37664 | 6.57905 | 39217 ft | 443 kts | 342° |
| 2026-04-30 20:58 | 46.43496 | 6.55052 | 39217 ft | 441 kts | 342° |
| 2026-04-30 20:59 | 46.52169 | 6.50799 | 39222 ft | 439 kts | 342° |
| 2026-04-30 21:00 | 46.63739 | 6.45098 | 39227 ft | 439 kts | 342° |
| 2026-04-30 21:01 | 46.72451 | 6.40788 | 39240 ft | 442 kts | 341° |
| 2026-04-30 21:02 | 46.81186 | 6.36452 | 39236 ft | 444 kts | 342° |
| 2026-04-30 21:02 | 46.87041 | 6.33538 | 39222 ft | 445 kts | 342° |
| 2026-04-30 21:03 | 46.92904 | 6.30612 | 39221 ft | 445 kts | 342° |
| 2026-04-30 21:03 | 46.98759 | 6.27683 | 39226 ft | 444 kts | 342° |
| 2026-04-30 21:04 | 47.04613 | 6.24749 | 39209 ft | 444 kts | 342° |
| 2026-04-30 21:04 | 47.13033 | 6.19240 | 39205 ft | 443 kts | 334° |
| 2026-04-30 21:05 | 47.18548 | 6.15138 | 39201 ft | 443 kts | 334° |
| 2026-04-30 21:05 | 47.24085 | 6.11115 | 39193 ft | 444 kts | 335° |
| 2026-04-30 21:06 | 47.29603 | 6.07136 | 39193 ft | 445 kts | 335° |
| 2026-04-30 21:06 | 47.35373 | 6.03907 | 39195 ft | 443 kts | 349° |
| 2026-04-30 21:07 | 47.41499 | 6.03245 | 39205 ft | 442 kts | 1° |
| 2026-04-30 21:07 | 47.47668 | 6.03480 | 39197 ft | 443 kts | 2° |
| 2026-04-30 21:08 | 47.53836 | 6.03679 | 39203 ft | 443 kts | 1° |
| 2026-04-30 21:08 | 47.59972 | 6.03815 | 39211 ft | 443 kts | 1° |
| 2026-04-30 21:09 | 47.66133 | 6.03938 | 39215 ft | 443 kts | 1° |
| 2026-04-30 21:09 | 47.72307 | 6.04070 | 39223 ft | 443 kts | 2° |
| 2026-04-30 21:10 | 47.78378 | 6.05531 | 39237 ft | 443 kts | 14° |
| 2026-04-30 21:10 | 47.84343 | 6.07856 | 39220 ft | 444 kts | 15° |
| 2026-04-30 21:11 | 47.90325 | 6.10194 | 39230 ft | 444 kts | 15° |
| 2026-04-30 21:11 | 47.96322 | 6.12482 | 39226 ft | 445 kts | 14° |
| 2026-04-30 21:12 | 48.02328 | 6.14753 | 39234 ft | 445 kts | 14° |
| 2026-04-30 21:12 | 48.08338 | 6.17025 | 39234 ft | 446 kts | 15° |
| 2026-04-30 21:13 | 48.14358 | 6.19308 | 39239 ft | 446 kts | 15° |
| 2026-04-30 21:13 | 48.20344 | 6.21585 | 39237 ft | 446 kts | 15° |
| 2026-04-30 21:14 | 48.26360 | 6.23879 | 39245 ft | 446 kts | 15° |
| 2026-04-30 21:14 | 48.32412 | 6.26192 | 39240 ft | 445 kts | 15° |
| 2026-04-30 21:15 | 48.38389 | 6.28483 | 39236 ft | 445 kts | 15° |
| 2026-04-30 21:15 | 48.44392 | 6.30789 | 39241 ft | 444 kts | 15° |
| 2026-04-30 21:16 | 48.50376 | 6.33093 | 39248 ft | 444 kts | 15° |
| 2026-04-30 21:16 | 48.56361 | 6.35405 | 39264 ft | 443 kts | 15° |
| 2026-04-30 21:17 | 48.62300 | 6.37703 | 39263 ft | 443 kts | 15° |
| 2026-04-30 21:17 | 48.68342 | 6.39510 | 39265 ft | 444 kts | 6° |
| 2026-04-30 21:18 | 48.74504 | 6.40097 | 39266 ft | 444 kts | 5° |
| 2026-04-30 21:18 | 48.80666 | 6.40638 | 39265 ft | 444 kts | 5° |
| 2026-04-30 21:19 | 48.86837 | 6.41247 | 39266 ft | 444 kts | 5° |
| 2026-04-30 21:19 | 48.93009 | 6.41886 | 39270 ft | 444 kts | 5° |
| 2026-04-30 21:20 | 48.99175 | 6.42528 | 39264 ft | 444 kts | 5° |
| 2026-04-30 21:20 | 49.05342 | 6.43169 | 39269 ft | 444 kts | 5° |
| 2026-04-30 21:21 | 49.11533 | 6.43454 | 39269 ft | 446 kts | 356° |
| 2026-04-30 21:22 | 49.20613 | 6.40155 | 39280 ft | 449 kts | 346° |
| 2026-04-30 21:23 | 49.32594 | 6.35062 | 39289 ft | 448 kts | 347° |
| 2026-04-30 21:23 | 49.41618 | 6.31323 | 39294 ft | 447 kts | 346° |
| 2026-04-30 21:24 | 49.47614 | 6.28830 | 39291 ft | 446 kts | 346° |
| 2026-04-30 21:24 | 49.53614 | 6.26339 | 39283 ft | 446 kts | 347° |
| 2026-04-30 21:25 | 49.62574 | 6.22686 | 39296 ft | 446 kts | 347° |
| 2026-04-30 21:25 | 49.65578 | 6.21458 | 38725 ft | 447 kts | 346° |
| 2026-04-30 21:26 | 49.71534 | 6.19016 | 39311 ft | 442 kts | 347° |
| 2026-04-30 21:27 | 49.80538 | 6.15301 | 39275 ft | 449 kts | 347° |
| 2026-04-30 21:27 | 49.86601 | 6.13062 | 38709 ft | 447 kts | 353° |
| 2026-04-30 21:28 | 49.92754 | 6.12862 | 39297 ft | 443 kts | 2° |
| 2026-04-30 21:28 | 49.95849 | 6.12939 | 39303 ft | 444 kts | 2° |
| 2026-04-30 21:29 | 50.05166 | 6.13088 | 39298 ft | 447 kts | 2° |
| 2026-04-30 21:30 | 50.20699 | 6.13156 | 39294 ft | 447 kts | 2° |
| 2026-04-30 21:31 | 50.29921 | 6.14374 | 39331 ft | 440 kts | 20° |
| 2026-04-30 21:31 | 50.35376 | 6.18588 | 39309 ft | 436 kts | 35° |
| 2026-04-30 21:32 | 50.42907 | 6.26580 | 39301 ft | 436 kts | 35° |
| 2026-04-30 21:32 | 50.47967 | 6.31813 | 39302 ft | 436 kts | 33° |
| 2026-04-30 21:33 | 50.56368 | 6.37344 | 39305 ft | 438 kts | 22° |
| 2026-04-30 21:34 | 50.61152 | 6.39950 | 39310 ft | 437 kts | 21° |
| 2026-04-30 21:34 | 50.70658 | 6.45305 | 39327 ft | 437 kts | 21° |
| 2026-04-30 21:35 | 50.75565 | 6.47279 | 39312 ft | 441 kts | 1° |
| 2026-04-30 21:35 | 50.78605 | 6.46627 | 39324 ft | 445 kts | 344° |
| 2026-04-30 21:35 | 50.81422 | 6.44688 | 39337 ft | 449 kts | 330° |
| 2026-04-30 21:36 | 50.83866 | 6.41504 | 39334 ft | 453 kts | 314° |
| 2026-04-30 21:36 | 50.85920 | 6.37803 | 39323 ft | 455 kts | 311° |
| 2026-04-30 21:37 | 50.94422 | 6.22893 | 39254 ft | 450 kts | 326° |
| 2026-04-30 21:37 | 50.97079 | 6.20408 | 38796 ft | 440 kts | 338° |
| 2026-04-30 21:37 | 50.99989 | 6.18768 | 36730 ft | 455 kts | 351° |
| 2026-04-30 21:38 | 51.03160 | 6.18026 | 34903 ft | 465 kts | 354° |
| 2026-04-30 21:38 | 51.06365 | 6.17379 | 33396 ft | 464 kts | 354° |
| 2026-04-30 21:38 | 51.09562 | 6.16710 | 31938 ft | 461 kts | 354° |
| 2026-04-30 21:38 | 51.12691 | 6.16007 | 30827 ft | 455 kts | 353° |
| 2026-04-30 21:39 | 51.15790 | 6.15273 | 30287 ft | 435 kts | 353° |
| 2026-04-30 21:39 | 51.18704 | 6.14569 | 29155 ft | 426 kts | 353° |
| 2026-04-30 21:39 | 51.21676 | 6.13854 | 27442 ft | 435 kts | 353° |
| 2026-04-30 21:39 | 51.24688 | 6.13255 | 25858 ft | 437 kts | 0° |
| 2026-04-30 21:40 | 51.27694 | 6.13809 | 24349 ft | 434 kts | 18° |
| 2026-04-30 21:40 | 51.30458 | 6.15661 | 22740 ft | 429 kts | 33° |
| 2026-04-30 21:40 | 51.32836 | 6.18478 | 21134 ft | 423 kts | 42° |
| 2026-04-30 21:40 | 51.35109 | 6.21449 | 19599 ft | 420 kts | 41° |
| 2026-04-30 21:41 | 51.37382 | 6.24344 | 18289 ft | 412 kts | 41° |
| 2026-04-30 21:41 | 51.39624 | 6.27141 | 16795 ft | 405 kts | 40° |
| 2026-04-30 21:41 | 51.41931 | 6.29671 | 15368 ft | 403 kts | 29° |
| 2026-04-30 21:41 | 51.44613 | 6.30926 | 14013 ft | 404 kts | 9° |
| 2026-04-30 21:42 | 51.47417 | 6.30779 | 12558 ft | 404 kts | 352° |
| 2026-04-30 21:42 | 51.50093 | 6.29453 | 11158 ft | 402 kts | 336° |
| 2026-04-30 21:42 | 51.52392 | 6.27047 | 9792 ft | 399 kts | 323° |
| 2026-04-30 21:42 | 51.54558 | 6.24293 | 8355 ft | 395 kts | 322° |
| 2026-04-30 21:43 | 51.56707 | 6.21591 | 7156 ft | 388 kts | 323° |
| 2026-04-30 21:43 | 51.58785 | 6.19025 | 6699 ft | 362 kts | 324° |
| 2026-04-30 21:43 | 51.60562 | 6.16411 | 6472 ft | 334 kts | 307° |
| 2026-04-30 21:43 | 51.61741 | 6.13355 | 6316 ft | 309 kts | 299° |
| 2026-04-30 21:44 | 51.62768 | 6.10449 | 6164 ft | 289 kts | 299° |
| 2026-04-30 21:44 | 51.63737 | 6.07718 | 6143 ft | 275 kts | 299° |
| 2026-04-30 21:44 | 51.64697 | 6.05035 | 6154 ft | 281 kts | 300° |
| 2026-04-30 21:44 | 51.65692 | 6.02284 | 6151 ft | 286 kts | 300° |
| 2026-04-30 21:45 | 51.66699 | 5.99509 | 5904 ft | 288 kts | 300° |
| 2026-04-30 21:45 | 51.67683 | 5.96803 | 5570 ft | 278 kts | 300° |
| 2026-04-30 21:45 | 51.68634 | 5.94157 | 5298 ft | 266 kts | 296° |
| 2026-04-30 21:45 | 51.69083 | 5.91410 | 5195 ft | 243 kts | 269° |
| 2026-04-30 21:46 | 51.69134 | 5.88810 | 5092 ft | 223 kts | 268° |
| 2026-04-30 21:46 | 51.69178 | 5.86390 | 4984 ft | 208 kts | 266° |
| 2026-04-30 21:46 | 51.68867 | 5.84251 | 4935 ft | 194 kts | 230° |
| 2026-04-30 21:46 | 51.67901 | 5.82815 | 4889 ft | 183 kts | 199° |
| 2026-04-30 21:47 | 51.66737 | 5.82284 | 4815 ft | 173 kts | 178° |
| 2026-04-30 21:47 | 51.65562 | 5.82188 | 4755 ft | 167 kts | 175° |
| 2026-04-30 21:47 | 51.64414 | 5.82134 | 4560 ft | 164 kts | 175° |
| 2026-04-30 21:47 | 51.63289 | 5.82082 | 4389 ft | 161 kts | 175° |
| 2026-04-30 21:48 | 51.62176 | 5.82117 | 4188 ft | 157 kts | 161° |
| 2026-04-30 21:48 | 51.61295 | 5.83015 | 4004 ft | 149 kts | 129° |
| 2026-04-30 21:48 | 51.60948 | 5.84504 | 3824 ft | 143 kts | 96° |
| 2026-04-30 21:48 | 51.60926 | 5.86095 | 3630 ft | 142 kts | 99° |
| 2026-04-30 21:49 | 51.60875 | 5.87647 | 3445 ft | 137 kts | 99° |
| 2026-04-30 21:49 | 51.60831 | 5.89151 | 3260 ft | 133 kts | 99° |
| 2026-04-30 21:49 | 51.60791 | 5.90627 | 3099 ft | 133 kts | 99° |
| 2026-04-30 21:49 | 51.60752 | 5.92126 | 2953 ft | 134 kts | 99° |
| 2026-04-30 21:50 | 51.60715 | 5.93615 | 2766 ft | 133 kts | 99° |
| 2026-04-30 21:50 | 51.60679 | 5.95092 | 2583 ft | 132 kts | 99° |
| 2026-04-30 21:50 | 51.60644 | 5.96547 | 2418 ft | 130 kts | 99° |
| 2026-04-30 21:50 | 51.60609 | 5.98013 | 2247 ft | 132 kts | 98° |
| 2026-04-30 21:51 | 51.60574 | 5.99476 | 2070 ft | 130 kts | 99° |
| 2026-04-30 21:51 | 51.60541 | 6.00916 | 1896 ft | 128 kts | 99° |
| 2026-04-30 21:51 | 51.60506 | 6.02349 | 1726 ft | 130 kts | 98° |
| 2026-04-30 21:51 | 51.60472 | 6.03821 | 1555 ft | 132 kts | 98° |
| 2026-04-30 21:52 | 51.60438 | 6.05296 | 1375 ft | 132 kts | 98° |
| 2026-04-30 21:52 | 51.60403 | 6.06771 | 966 ft | 134 kts | 96° |
| 2026-04-30 21:52 | 51.60373 | 6.08146 | 705 ft | 118 kts | 91° |
| 2026-04-30 21:52 | 51.60340 | 6.09436 | 490 ft | 110 kts | 91° |
| 2026-04-30 21:53 | 51.60329 | 6.10698 | 382 ft | 116 kts | 88° |
| 2026-04-30 21:53 | 51.60299 | 6.11993 | 204 ft | 116 kts | 91° |
| 2026-04-30 21:53 | 51.60267 | 6.13282 | 103 ft | 114 kts | 91° |
| 2026-04-30 21:53 | 51.60245 | 6.14255 | 103 ft | 28 kts | 92° |
| 2026-04-30 21:54 | 51.60241 | 6.14547 | 102 ft | 26 kts | 94° |
| 2026-04-30 21:54 | 51.60235 | 6.14822 | 103 ft | 24 kts | 94° |
| 2026-04-30 21:54 | 51.60229 | 6.15078 | 106 ft | 22 kts | 92° |
| 2026-04-30 21:54 | 51.60223 | 6.15352 | 108 ft | 28 kts | 91° |
| 2026-04-30 21:55 | 51.60129 | 6.15451 | 107 ft | 19 kts | 180° |
| 2026-04-30 21:55 | 51.60072 | 6.15460 | 107 ft | 3 kts | 178° |
| 2026-04-30 21:55 | 51.60032 | 6.15422 | 106 ft | 11 kts | 249° |
| 2026-04-30 21:55 | 51.60036 | 6.15243 | 106 ft | 21 kts | 273° |
| 2026-04-30 21:56 | 51.60046 | 6.14957 | 105 ft | 30 kts | 274° |
| 2026-04-30 21:56 | 51.60033 | 6.14770 | 105 ft | 8 kts | 210° |
| 2026-04-30 21:56 | 51.60018 | 6.14770 | 105 ft | 1 kts | 176° |
| 2026-04-30 21:56 | 51.59998 | 6.14776 | 105 ft | 6 kts | 165° |
| 2026-04-30 21:57 | 51.59960 | 6.14743 | 103 ft | 7 kts | 257° |
| 2026-04-30 21:57 | 51.59960 | 6.14725 | 105 ft | 2 kts | 273° |
| 2026-04-30 21:57 | 51.59961 | 6.14716 | 105 ft | 0 kts | 272° |
| 2026-04-30 21:57 | 51.59961 | 6.14713 | 105 ft | 0 kts | 272° |